Time;durP1;ratioP1;P1;durP2;ratioP2;P2;SDS_P1;SDS_P2;PMS_P1;PMS_P2;Temp;Humidity;BMP_temperature;BMP_pressure;BME280_temperature;BME280_humidity;BME280_pressure;Samples;Min_cycle;Max_cycle;Signal;HPM_P1;HPM_P2
2022/08/24 00:00:36;;;;;;;;;25.67;21.33;;;;;25.12;58.89;98592.50;6146409;22;104057;-96
2022/08/24 00:03:06;;;;;;;;;23.33;18.33;;;;;25.11;58.89;98606.63;6146037;22;103185;-96
2022/08/24 00:05:34;;;;;;;;;21.67;19.00;;;;;25.08;59.02;98596.97;6123486;22;102289;-96
2022/08/24 00:08:03;;;;;;;;;18.33;16.33;;;;;25.11;58.84;98601.94;6147586;22;102059;-96
2022/08/24 00:10:31;;;;;;;;;18.67;17.33;;;;;25.10;59.17;98611.34;6146260;22;104169;-96
2022/08/24 00:12:58;;;;;;;;;20.00;18.33;;;;;25.08;59.00;98602.50;6170479;22;102324;-96
2022/08/24 00:15:26;;;;;;;;;23.33;21.00;;;;;25.10;58.75;98611.34;6147432;22;102043;-96
2022/08/24 00:17:54;;;;;;;;;18.67;16.67;;;;;25.09;58.73;98608.84;6172956;22;104702;-96
2022/08/24 00:20:23;;;;;;;;;16.67;15.67;;;;;25.09;58.88;98597.78;6149742;22;103026;-96
2022/08/24 00:22:52;;;;;;;;;19.67;16.67;;;;;25.10;58.96;98610.50;6175616;22;102321;-96
2022/08/24 00:25:20;;;;;;;;;21.00;18.67;;;;;25.12;58.97;98613.81;6149713;22;102200;-96
2022/08/24 00:27:48;;;;;;;;;17.33;16.00;;;;;25.11;58.81;98606.63;6150097;22;102610;-96
2022/08/24 00:30:17;;;;;;;;;20.00;18.00;;;;;25.12;58.68;98609.13;6146793;22;103199;-96
2022/08/24 00:32:45;;;;;;;;;22.00;19.00;;;;;25.06;58.88;98595.63;6123098;22;102603;-96
2022/08/24 00:35:13;;;;;;;;;19.33;18.00;;;;;25.09;58.72;98604.16;6150271;22;102646;-96
2022/08/24 00:37:40;;;;;;;;;20.67;18.33;;;;;25.10;59.00;98596.69;6172391;22;102243;-96
2022/08/24 00:40:11;;;;;;;;;17.33;16.33;;;;;25.10;58.90;98602.22;6172038;22;103441;-96
2022/08/24 00:42:39;;;;;;;;;17.33;16.33;;;;;25.09;58.91;98598.63;6170765;22;102474;-96
2022/08/24 00:45:08;;;;;;;;;19.33;17.00;;;;;25.08;58.75;98596.16;6170951;22;102609;-96
2022/08/24 00:47:43;;;;;;;;;17.33;15.67;;;;;25.06;58.98;98592.84;6170690;22;102674;-96
2022/08/24 00:50:24;;;;;;;;;19.00;17.67;;;;;25.06;58.83;98596.44;6147947;22;108933;-96
2022/08/24 00:52:55;;;;;;;;;18.00;16.33;;;;;25.07;58.97;98597.28;6136832;22;102395;-96
2022/08/24 00:55:33;;;;;;;;;20.67;18.67;;;;;25.07;58.80;98591.75;6145926;22;102459;-96
2022/08/24 00:58:16;;;;;;;;;17.33;14.00;;;;;25.08;58.87;98598.94;6168664;22;102616;-96
2022/08/24 01:00:49;;;;;;;;;21.33;19.33;;;;;25.06;58.97;98606.69;6140099;22;109630;-96
2022/08/24 01:03:16;;;;;;;;;18.00;18.00;;;;;25.07;58.81;98600.03;6145682;22;102580;-96
2022/08/24 01:05:45;;;;;;;;;19.00;17.67;;;;;25.05;58.88;98603.09;6170108;22;102615;-96
2022/08/24 01:08:22;;;;;;;;;20.00;17.33;;;;;25.10;58.95;98610.50;6139718;22;102365;-96
2022/08/24 01:11:18;;;;;;;;;16.00;14.00;;;;;25.07;58.92;98616.66;6120186;22;109078;-96
2022/08/24 01:14:13;;;;;;;;;18.00;16.67;;;;;25.06;58.66;98623.28;6122482;22;102225;-96
2022/08/24 01:20:15;;;;;;;;;17.00;16.00;;;;;25.07;58.40;98622.19;6134369;22;102474;-96
2022/08/24 01:23:05;;;;;;;;;12.33;12.00;;;;;25.09;58.86;98620.75;6114195;22;108579;-96
2022/08/24 01:25:42;;;;;;;;;17.67;15.00;;;;;25.04;58.67;98615.28;6124220;22;102706;-96
2022/08/24 01:28:12;;;;;;;;;16.67;16.67;;;;;25.09;58.75;98623.53;6118769;22;102412;-96
2022/08/24 01:30:41;;;;;;;;;14.67;13.33;;;;;25.02;58.84;98611.19;6121595;22;102488;-96
2022/08/24 01:33:09;;;;;;;;;16.00;15.00;;;;;25.04;58.90;98614.44;6150402;22;104166;-96
2022/08/24 01:35:37;;;;;;;;;20.00;18.00;;;;;25.04;58.83;98618.03;6149162;22;103216;-96
2022/08/24 01:38:08;;;;;;;;;19.00;18.00;;;;;25.04;58.76;98614.44;6148463;22;102470;-96
2022/08/24 01:40:39;;;;;;;;;15.33;14.33;;;;;25.04;58.77;98617.22;6127219;22;102633;-96
2022/08/24 01:43:07;;;;;;;;;14.00;14.00;;;;;25.05;58.47;98616.09;6125528;22;103979;-96
2022/08/24 01:45:36;;;;;;;;;15.67;13.67;;;;;25.07;58.87;98622.19;6147654;22;107760;-96
2022/08/24 01:48:05;;;;;;;;;18.67;17.33;;;;;25.01;59.00;98617.81;6146426;22;102349;-96
2022/08/24 01:50:33;;;;;;;;;14.33;14.00;;;;;25.04;58.82;98623.56;6147454;22;102555;-96
2022/08/24 01:53:03;;;;;;;;;20.33;18.67;;;;;25.04;58.77;98614.44;6148763;22;103489;-96
2022/08/24 01:55:32;;;;;;;;;15.67;14.00;;;;;25.04;58.97;98611.69;6149323;22;102328;-96
2022/08/24 01:57:59;;;;;;;;;16.00;14.67;;;;;25.04;58.69;98614.44;6147598;22;102276;-96
2022/08/24 02:00:27;;;;;;;;;15.00;14.33;;;;;25.02;58.66;98614.75;6120457;22;102505;-96
2022/08/24 02:02:56;;;;;;;;;16.33;14.33;;;;;25.02;58.95;98619.47;6123622;22;103786;-96
2022/08/24 02:05:24;;;;;;;;;18.67;17.33;;;;;25.03;58.86;98618.38;6145602;22;102436;-96
2022/08/24 02:07:52;;;;;;;;;14.67;14.00;;;;;25.00;58.66;98611.47;6145913;22;102577;-96
2022/08/24 02:10:20;;;;;;;;;14.00;13.33;;;;;25.03;58.69;98629.44;6131335;22;102559;-96
2022/08/24 02:12:56;;;;;;;;;17.33;15.67;;;;;25.02;58.56;98625.84;6119924;22;104983;-96
2022/08/24 02:15:29;;;;;;;;;14.00;14.00;;;;;25.03;58.79;98623.91;6124016;22;102212;-96
2022/08/24 02:17:58;;;;;;;;;15.33;14.67;;;;;25.02;58.60;98619.47;6122425;22;102562;-96
2022/08/24 02:20:26;;;;;;;;;15.67;14.00;;;;;24.99;58.65;98623.63;6150062;22;102160;-96
2022/08/24 02:22:53;;;;;;;;;15.00;14.67;;;;;25.02;58.61;98625.84;6148213;22;103042;-96
2022/08/24 02:25:21;;;;;;;;;17.33;15.00;;;;;25.00;58.62;98618.94;6148087;22;102342;-96
2022/08/24 02:27:49;;;;;;;;;15.00;14.67;;;;;25.00;58.72;98621.69;6124837;22;101887;-96
2022/08/24 02:30:17;;;;;;;;;17.33;14.00;;;;;25.00;58.81;98618.94;6117505;22;102229;-96
2022/08/24 02:32:46;;;;;;;;;16.00;15.00;;;;;25.00;58.73;98627.22;6125526;22;103540;-96
2022/08/24 02:35:13;;;;;;;;;17.00;14.00;;;;;25.02;58.83;98633.31;6144186;22;102318;-96
2022/08/24 02:37:41;;;;;;;;;15.00;15.00;;;;;25.02;58.93;98636.06;6145229;22;104589;-96
2022/08/24 02:40:10;;;;;;;;;14.33;14.33;;;;;24.99;58.60;98637.47;6117302;22;102480;-96
2022/08/24 02:42:37;;;;;;;;;11.00;10.00;;;;;25.03;58.64;98648.78;6142555;22;104449;-96
2022/08/24 02:45:06;;;;;;;;;15.67;14.33;;;;;24.98;58.78;98635.00;6147612;22;102354;-96
2022/08/24 02:47:34;;;;;;;;;17.00;14.00;;;;;24.96;59.00;98629.75;6143231;22;102615;-96
2022/08/24 02:50:06;;;;;;;;;14.67;14.00;;;;;24.96;58.80;98631.69;6146506;22;102027;-96
2022/08/24 02:52:40;;;;;;;;;15.33;13.67;;;;;25.00;58.96;98639.13;6121530;22;104616;-96
2022/08/24 02:55:11;;;;;;;;;16.00;14.33;;;;;25.01;58.74;98642.72;6148164;22;102804;-96
2022/08/24 02:57:38;;;;;;;;;17.00;16.00;;;;;25.01;58.69;98638.00;6144941;22;102283;-96
2022/08/24 03:00:09;;;;;;;;;16.00;15.67;;;;;25.02;58.78;98647.13;6121232;22;102604;-96
2022/08/24 03:02:37;;;;;;;;;15.67;15.67;;;;;25.00;58.65;98638.28;6143963;22;104000;-96
2022/08/24 03:05:05;;;;;;;;;14.33;13.67;;;;;24.99;58.64;98639.44;6096088;22;102234;-96
2022/08/24 03:07:33;;;;;;;;;15.33;15.00;;;;;24.97;58.88;98644.44;6142907;22;102563;-96
2022/08/24 03:10:01;;;;;;;;;14.33;14.00;;;;;24.97;58.66;98638.91;6165724;22;102602;-96
2022/08/24 03:12:28;;;;;;;;;14.33;12.00;;;;;25.01;58.86;98649.06;6143439;22;102246;-96
2022/08/24 03:14:57;;;;;;;;;17.00;16.33;;;;;24.95;58.76;98628.09;6148157;22;102565;-96
2022/08/24 03:17:25;;;;;;;;;15.00;14.00;;;;;24.95;58.88;98641.16;6143633;22;102617;-96
2022/08/24 03:19:54;;;;;;;;;18.33;17.33;;;;;24.98;58.69;98651.63;6148401;22;102086;-96
2022/08/24 03:22:22;;;;;;;;;12.67;12.67;;;;;24.96;59.13;98659.38;6149204;22;103719;-96
2022/08/24 03:24:49;;;;;;;;;14.00;12.33;;;;;24.96;58.63;98659.38;6168686;22;102208;-96
2022/08/24 03:27:17;;;;;;;;;15.00;13.33;;;;;24.96;58.91;98649.13;6146226;22;102160;-96
2022/08/24 03:29:45;;;;;;;;;13.00;13.00;;;;;25.00;58.59;98661.25;6173991;22;102195;-96
2022/08/24 03:32:16;;;;;;;;;14.00;13.00;;;;;24.97;58.81;98661.84;6144682;22;108641;-96
2022/08/24 03:34:45;;;;;;;;;13.67;12.33;;;;;25.00;58.93;98672.31;6144377;22;102516;-96
2022/08/24 03:37:12;;;;;;;;;13.67;12.67;;;;;24.99;58.71;98670.66;6147424;22;102267;-96
2022/08/24 03:39:39;;;;;;;;;13.33;12.33;;;;;24.96;58.85;98675.97;6145146;22;102277;-96
2022/08/24 03:42:07;;;;;;;;;16.33;13.67;;;;;24.98;58.62;98668.22;6143836;22;104052;-96
2022/08/24 03:44:35;;;;;;;;;13.67;12.67;;;;;24.94;58.63;98664.38;6146017;22;102404;-96
2022/08/24 03:47:03;;;;;;;;;16.00;14.00;;;;;24.91;58.93;98657.47;6148905;22;102688;-96
2022/08/24 03:49:32;;;;;;;;;14.33;12.67;;;;;24.94;59.05;98667.16;6147323;22;102349;-96
2022/08/24 03:52:00;;;;;;;;;14.33;13.67;;;;;24.97;58.90;98669.31;6148182;22;104138;-96
2022/08/24 03:54:28;;;;;;;;;17.00;16.67;;;;;24.92;58.64;98655.53;6147991;22;102524;-96
2022/08/24 03:56:57;;;;;;;;;15.67;14.00;;;;;24.91;59.02;98656.66;6146827;22;102387;-96
2022/08/24 03:59:25;;;;;;;;;13.67;12.67;;;;;24.98;58.77;98668.22;6150777;22;104895;-96
2022/08/24 04:01:54;;;;;;;;;14.00;13.00;;;;;24.97;58.81;98655.50;6146535;22;103047;-96
2022/08/24 04:04:23;;;;;;;;;14.00;13.33;;;;;24.97;58.71;98661.03;6146572;22;102212;-96
2022/08/24 04:06:51;;;;;;;;;14.00;12.33;;;;;24.95;58.58;98652.22;6148093;22;104947;-96
2022/08/24 04:09:18;;;;;;;;;10.33;10.33;;;;;24.97;58.56;98649.97;6146485;22;103024;-96
2022/08/24 04:11:46;;;;;;;;;12.00;11.67;;;;;24.93;58.77;98635.06;6125750;22;104115;-96
2022/08/24 04:14:18;;;;;;;;;13.00;12.00;;;;;24.93;58.50;98644.19;6121761;22;102183;-96
2022/08/24 04:16:53;;;;;;;;;13.00;13.00;;;;;24.97;58.50;98647.19;6147735;22;102504;-96
2022/08/24 04:19:24;;;;;;;;;15.00;15.00;;;;;24.91;58.59;98642.81;6150543;22;102376;-96
2022/08/24 04:21:52;;;;;;;;;14.67;12.67;;;;;24.94;58.92;98651.38;6118866;22;104030;-96
2022/08/24 04:24:20;;;;;;;;;16.00;14.67;;;;;24.92;58.87;98652.78;6148155;22;102140;-96
2022/08/24 04:26:48;;;;;;;;;13.67;12.33;;;;;24.97;58.59;98664.63;6146840;22;102282;-96
2022/08/24 04:29:21;;;;;;;;;15.00;12.33;;;;;24.96;58.58;98664.91;6120710;22;109798;-96
2022/08/24 04:31:53;;;;;;;;;13.67;13.00;;;;;24.88;58.72;98650.59;6141917;22;108398;-96
2022/08/24 04:34:24;;;;;;;;;12.67;12.00;;;;;24.93;58.37;98665.50;6088040;22;102537;-96
2022/08/24 04:36:52;;;;;;;;;12.67;12.67;;;;;24.96;58.71;98670.44;6126256;22;102889;-96
2022/08/24 04:39:20;;;;;;;;;11.00;10.33;;;;;24.91;58.68;98663.00;6078726;22;102275;-96
2022/08/24 04:41:49;;;;;;;;;12.00;11.00;;;;;24.88;58.64;98658.06;6131877;22;108316;-96
2022/08/24 04:44:16;;;;;;;;;12.00;12.00;;;;;24.91;58.33;98662.19;6135300;22;102642;-96
2022/08/24 04:46:44;;;;;;;;;14.00;12.00;;;;;24.93;58.46;98659.97;6014335;22;103782;-96
2022/08/24 04:49:12;;;;;;;;;13.33;12.00;;;;;24.97;58.54;98672.09;6121064;22;105380;-96
2022/08/24 04:51:40;;;;;;;;;12.00;10.33;;;;;24.93;58.66;98659.97;6123941;22;103211;-96
2022/08/24 04:54:08;;;;;;;;;15.00;13.00;;;;;24.92;58.42;98658.31;6121814;22;102724;-96
2022/08/24 04:56:37;;;;;;;;;13.67;12.00;;;;;24.96;58.39;98653.84;6078137;22;104351;-96
2022/08/24 04:59:05;;;;;;;;;15.33;12.33;;;;;24.96;58.47;98653.84;6151446;22;102639;-96
2022/08/24 05:01:33;;;;;;;;;11.00;11.00;;;;;24.92;58.79;98644.47;6149737;22;103959;-96
2022/08/24 05:04:02;;;;;;;;;13.00;10.33;;;;;24.94;58.65;98645.03;6146744;22;102633;-96
2022/08/24 05:06:31;;;;;;;;;11.33;11.00;;;;;24.96;58.67;98642.78;6147752;22;102536;-96
2022/08/24 05:08:59;;;;;;;;;13.67;13.00;;;;;24.92;58.67;98638.94;6151327;22;102313;-96
2022/08/24 05:11:27;;;;;;;;;9.67;9.67;;;;;24.91;58.69;98635.34;6147512;22;104518;-96
2022/08/24 05:13:56;;;;;;;;;10.67;10.67;;;;;24.91;58.75;98643.66;6148440;22;102519;-96
2022/08/24 05:16:24;;;;;;;;;13.33;12.33;;;;;24.95;58.72;98657.75;6150458;22;102232;-96
2022/08/24 05:18:53;;;;;;;;;12.00;11.00;;;;;24.91;58.75;98651.94;6121860;22;102293;-96
2022/08/24 05:21:21;;;;;;;;;12.00;12.00;;;;;24.98;58.66;98657.16;6120920;22;109006;-96
2022/08/24 05:23:49;;;;;;;;;12.00;11.33;;;;;24.95;58.44;98661.31;6124599;22;102387;-96
2022/08/24 05:26:23;;;;;;;;;12.33;11.67;;;;;24.93;58.51;98654.44;6151120;22;102039;-96
2022/08/24 05:28:58;;;;;;;;;13.33;12.67;;;;;24.96;58.56;98662.13;6125080;22;102080;-96
2022/08/24 05:31:28;;;;;;;;;9.67;9.00;;;;;24.97;58.57;98663.78;6145357;22;108130;-96
2022/08/24 05:33:57;;;;;;;;;12.00;10.00;;;;;24.93;58.45;98659.97;6146990;22;102630;-96
2022/08/24 05:36:28;;;;;;;;;9.67;9.00;;;;;24.92;58.46;98659.13;6123298;22;102164;-96
2022/08/24 05:38:57;;;;;;;;;8.00;8.00;;;;;24.90;58.55;98661.38;6126193;22;102472;-96
2022/08/24 05:41:24;;;;;;;;;11.33;10.67;;;;;24.92;58.39;98669.38;6154177;22;104046;-96
2022/08/24 05:43:52;;;;;;;;;10.67;9.67;;;;;24.93;58.42;98671.03;6155441;22;102179;-96
2022/08/24 05:46:20;;;;;;;;;11.00;9.00;;;;;24.95;58.52;98674.34;6124795;22;102179;-96
2022/08/24 05:48:47;;;;;;;;;13.00;12.00;;;;;24.91;58.72;98662.19;6151991;22;102693;-96
2022/08/24 05:51:19;;;;;;;;;11.67;10.67;;;;;24.93;58.44;98665.50;6126452;22;108745;-96
2022/08/24 05:53:47;;;;;;;;;11.33;10.33;;;;;24.88;58.91;98658.91;6148775;22;102071;-96
2022/08/24 05:56:16;;;;;;;;;10.00;9.00;;;;;24.88;58.51;98656.13;6149454;22;102285;-96
2022/08/24 05:58:43;;;;;;;;;10.67;10.67;;;;;24.91;58.75;98649.19;6124693;22;102573;-96
2022/08/24 06:01:15;;;;;;;;;13.00;11.33;;;;;24.91;58.54;98649.19;6123410;22;103993;-96
2022/08/24 06:03:43;;;;;;;;;11.67;10.33;;;;;24.94;58.41;98664.38;6150551;22;104182;-96
2022/08/24 06:06:12;;;;;;;;;10.67;10.00;;;;;24.94;58.41;98661.63;6150271;22;102466;-96
2022/08/24 06:08:42;;;;;;;;;12.00;12.00;;;;;24.93;58.61;98651.66;6127890;22;102026;-96
2022/08/24 06:11:10;;;;;;;;;13.00;10.33;;;;;24.92;58.64;98658.31;6149326;22;103999;-96
2022/08/24 06:13:38;;;;;;;;;10.00;10.00;;;;;24.88;58.41;98663.59;6120612;22;102690;-96
2022/08/24 06:16:10;;;;;;;;;12.00;10.00;;;;;24.94;58.58;98683.75;6150530;22;102478;-96
2022/08/24 06:18:53;;;;;;;;;11.00;11.00;;;;;24.93;58.41;98682.94;6107066;22;102565;-96
2022/08/24 06:21:23;;;;;;;;;10.33;9.00;;;;;24.91;58.49;98673.25;6125324;22;103968;-96
2022/08/24 06:23:54;;;;;;;;;10.00;10.00;;;;;24.93;58.34;98671.03;6122150;22;102532;-96
2022/08/24 06:29:07;;;;;;;;;12.00;10.67;;;;;24.91;58.71;98678.78;6129665;22;102633;-96
2022/08/24 06:31:37;;;;;;;;;10.00;10.00;;;;;24.91;58.55;98685.16;6146525;22;104038;-96
2022/08/24 06:34:10;;;;;;;;;10.00;10.00;;;;;24.93;58.67;98679.34;6121796;22;102152;-96
2022/08/24 06:36:38;;;;;;;;;14.00;9.67;;;;;24.86;58.52;98688.78;6125352;22;102566;-96
2022/08/24 06:39:07;;;;;;;;;10.33;9.33;;;;;24.89;58.25;98687.41;6125858;22;102616;-96
2022/08/24 06:41:36;;;;;;;;;11.00;10.00;;;;;24.93;58.57;98696.75;6144429;22;103496;-96
2022/08/24 06:44:05;;;;;;;;;11.00;10.67;;;;;24.93;58.36;98682.09;6127314;22;102539;-96
2022/08/24 06:46:35;;;;;;;;;9.00;8.67;;;;;24.93;58.39;98684.88;6148796;22;102402;-96
2022/08/24 06:49:02;;;;;;;;;11.33;10.33;;;;;24.93;58.51;98687.63;6124447;22;102431;-96
2022/08/24 06:51:31;;;;;;;;;10.67;10.67;;;;;24.93;58.19;98698.69;6146250;22;103340;-96
2022/08/24 06:53:59;;;;;;;;;12.67;11.67;;;;;24.95;58.57;98690.94;6124021;22;102801;-96
2022/08/24 06:56:26;;;;;;;;;12.33;11.00;;;;;24.91;58.51;98690.69;6148216;22;102430;-96
2022/08/24 06:58:54;;;;;;;;;12.33;10.00;;;;;24.92;58.50;98692.34;6151699;22;102003;-96
2022/08/24 07:01:24;;;;;;;;;8.67;8.00;;;;;24.97;58.57;98688.69;6156620;22;103898;-96
2022/08/24 07:03:52;;;;;;;;;9.33;9.33;;;;;24.94;58.56;98690.13;6149385;22;102515;-96
2022/08/24 07:06:20;;;;;;;;;10.33;10.00;;;;;24.97;58.59;98691.47;6125954;22;102585;-96
2022/08/24 07:08:48;;;;;;;;;10.67;10.00;;;;;24.93;58.68;98688.47;6126132;22;102515;-96
2022/08/24 07:11:16;;;;;;;;;11.00;8.00;;;;;24.97;58.35;98692.28;6149761;22;103962;-96
2022/08/24 07:13:46;;;;;;;;;11.33;10.67;;;;;24.92;58.60;98680.44;6151039;22;102187;-96
2022/08/24 07:16:15;;;;;;;;;9.00;9.00;;;;;24.94;58.48;98695.66;6153638;22;102393;-96
2022/08/24 07:18:43;;;;;;;;;10.00;9.00;;;;;24.95;58.32;98690.94;6149894;22;105329;-96
2022/08/24 07:21:18;;;;;;;;;10.33;9.33;;;;;24.98;58.37;98693.13;6150243;22;103365;-96
2022/08/24 07:23:48;;;;;;;;;10.00;10.00;;;;;24.98;58.44;98695.88;6149289;22;102225;-96
2022/08/24 07:26:21;;;;;;;;;10.00;9.67;;;;;24.98;58.44;98690.34;6146275;22;102471;-96
2022/08/24 07:28:50;;;;;;;;;9.33;9.00;;;;;24.95;58.43;98682.66;6154963;22;102288;-96
2022/08/24 07:31:19;;;;;;;;;8.33;8.33;;;;;24.95;58.40;98685.41;6132429;22;108667;-96
2022/08/24 07:33:48;;;;;;;;;9.33;9.33;;;;;24.93;58.43;98684.88;6176571;22;102445;-96
2022/08/24 07:36:18;;;;;;;;;10.00;9.00;;;;;24.93;58.26;98687.63;6174213;22;102115;-96
2022/08/24 07:38:50;;;;;;;;;11.00;10.00;;;;;24.93;58.54;98693.16;6178767;22;102571;-96
2022/08/24 07:41:20;;;;;;;;;9.00;8.00;;;;;24.94;58.39;98703.13;6177570;22;109131;-96
2022/08/24 07:44:07;;;;;;;;;10.33;9.33;;;;;24.96;58.31;98703.63;6147847;22;102467;-96
2022/08/24 07:46:36;;;;;;;;;8.33;7.67;;;;;24.95;58.57;98710.31;6153356;22;102310;-96
2022/08/24 07:49:06;;;;;;;;;8.00;8.00;;;;;24.98;58.50;98713.31;6152693;22;102543;-96
2022/08/24 07:51:53;;;;;;;;;12.00;9.00;;;;;24.99;58.41;98722.44;6142837;22;109995;-96
2022/08/24 07:54:21;;;;;;;;;8.67;8.67;;;;;24.97;58.23;98719.94;6153167;22;102508;-96
2022/08/24 07:56:49;;;;;;;;;9.33;8.00;;;;;24.96;58.54;98728.53;6148636;22;102435;-96
2022/08/24 07:59:16;;;;;;;;;8.33;8.33;;;;;24.96;58.27;98736.84;6150937;22;103202;-96
2022/08/24 08:01:44;;;;;;;;;10.00;9.00;;;;;24.98;58.40;98745.69;6150320;22;104292;-96
2022/08/24 08:04:14;;;;;;;;;9.00;8.67;;;;;24.94;58.42;98737.16;6146297;22;102058;-96
2022/08/24 08:06:42;;;;;;;;;12.00;10.00;;;;;24.95;58.32;98736.00;6147439;22;103050;-96
2022/08/24 08:09:10;;;;;;;;;9.00;9.00;;;;;24.97;58.35;98738.50;6148203;22;102464;-96
2022/08/24 08:11:38;;;;;;;;;9.00;8.00;;;;;24.96;58.31;98736.84;6148239;22;103938;-96
2022/08/24 08:14:06;;;;;;;;;8.67;8.67;;;;;24.98;58.17;98734.63;6147909;22;102231;-96
2022/08/24 08:16:34;;;;;;;;;8.00;8.00;;;;;24.96;58.21;98734.06;6152504;22;102167;-96
2022/08/24 08:19:04;;;;;;;;;9.33;9.00;;;;;24.98;58.46;98743.75;6150463;22;105120;-96
2022/08/24 08:24:29;;;;;;;;;8.00;8.00;;;;;24.99;58.14;98741.81;6171660;22;102475;-96
2022/08/24 08:26:58;;;;;;;;;8.00;7.00;;;;;24.96;58.31;98726.59;6151925;22;102106;-96
2022/08/24 08:29:25;;;;;;;;;9.00;8.00;;;;;24.97;58.26;98741.25;6176582;22;102626;-96
2022/08/24 08:31:54;;;;;;;;;7.33;7.33;;;;;24.99;58.31;98744.56;6146772;22;103888;-96
2022/08/24 08:34:22;;;;;;;;;7.67;7.67;;;;;25.01;58.21;98745.09;6152099;22;102171;-96
2022/08/24 08:36:50;;;;;;;;;8.67;7.67;;;;;24.97;58.05;98744.84;6152804;22;102413;-96
2022/08/24 08:39:18;;;;;;;;;9.33;7.67;;;;;24.98;58.32;98742.91;6150084;22;102466;-96
2022/08/24 08:41:50;;;;;;;;;10.00;8.00;;;;;25.01;58.14;98753.41;6152737;22;102930;-96
2022/08/24 08:44:41;;;;;;;;;5.67;5.67;;;;;25.01;58.26;98750.63;6149234;22;102580;-96
2022/08/24 08:47:29;;;;;;;;;8.00;8.00;;;;;24.98;58.31;98752.03;6169046;22;102683;-96
2022/08/24 08:50:07;;;;;;;;;8.00;8.00;;;;;24.96;58.17;98747.91;6173098;22;102382;-96
2022/08/24 08:52:56;;;;;;;;;8.33;7.67;;;;;25.02;58.29;98755.06;6151571;22;102828;-96
2022/08/24 08:55:36;;;;;;;;;9.33;9.00;;;;;25.02;58.22;98763.34;6149606;22;102164;-96
2022/08/24 08:58:14;;;;;;;;;8.00;7.33;;;;;25.02;58.17;98764.19;6152830;22;102311;-96
2022/08/24 09:01:06;;;;;;;;;7.00;7.00;;;;;25.02;58.04;98755.06;6153437;22;102370;-96
2022/08/24 09:03:41;;;;;;;;;9.67;9.00;;;;;25.02;58.09;98755.06;6150268;22;108958;-96
2022/08/24 09:06:21;;;;;;;;;7.33;7.00;;;;;25.04;58.14;98753.63;6152743;22;102171;-96
2022/08/24 09:09:21;;;;;;;;;8.00;7.33;;;;;25.01;58.26;98751.44;6177480;22;102315;-96
2022/08/24 09:12:07;;;;;;;;;9.00;8.00;;;;;25.04;58.09;98744.50;6123505;22;102618;-96
2022/08/24 09:14:46;;;;;;;;;8.00;7.33;;;;;25.05;58.19;98746.16;6151611;22;107956;-96
2022/08/24 09:17:35;;;;;;;;;8.33;8.00;;;;;25.05;58.06;98748.91;6152172;22;102191;-96
2022/08/24 09:20:23;;;;;;;;;11.00;9.00;;;;;25.05;58.21;98751.69;6150214;22;102184;-96
2022/08/24 09:23:08;;;;;;;;;7.00;6.67;;;;;25.05;57.98;98751.69;6145984;22;102837;-96
2022/08/24 09:25:50;;;;;;;;;8.00;8.00;;;;;25.05;58.06;98746.16;6146050;22;109050;-96
2022/08/24 09:29:03;;;;;;;;;8.33;8.33;;;;;25.05;58.21;98748.91;6149008;22;102157;-96
2022/08/24 09:31:50;;;;;;;;;8.67;8.00;;;;;25.06;58.03;98753.34;6123321;22;102579;-96
2022/08/24 09:34:24;;;;;;;;;7.00;6.33;;;;;25.06;58.26;98753.34;6173780;22;102659;-96
2022/08/24 09:37:04;;;;;;;;;7.33;6.00;;;;;25.06;58.18;98742.28;6150822;22;109049;-96
2022/08/24 09:39:57;;;;;;;;;9.00;8.67;;;;;25.07;58.15;98743.94;6150115;22;102321;-96
2022/08/24 09:42:43;;;;;;;;;7.33;6.00;;;;;25.08;58.22;98742.81;6150536;22;102474;-96
2022/08/24 09:45:32;;;;;;;;;7.67;7.67;;;;;25.08;58.11;98734.53;6153474;22;102775;-95
2022/08/24 09:48:25;;;;;;;;;9.00;8.67;;;;;25.08;57.96;98734.53;6149912;22;108671;-96
2022/08/24 09:51:30;;;;;;;;;7.00;7.00;;;;;25.09;58.02;98736.16;6152360;22;102259;-96
2022/08/24 09:54:05;;;;;;;;;8.00;7.33;;;;;25.09;58.03;98728.69;6151641;22;102083;-96
2022/08/24 09:56:35;;;;;;;;;7.00;7.00;;;;;25.08;58.12;98724.25;6176636;22;102069;-96
2022/08/24 09:59:10;;;;;;;;;8.00;7.00;;;;;25.09;58.05;98739.75;6153585;22;104647;-96
2022/08/24 10:01:46;;;;;;;;;6.33;6.00;;;;;25.09;58.07;98730.63;6151998;22;102189;-96
2022/08/24 10:04:32;;;;;;;;;9.00;8.00;;;;;25.09;57.98;98736.97;6151233;22;102215;-96
2022/08/24 10:07:24;;;;;;;;;8.33;8.33;;;;;25.10;58.03;98735.88;6176365;22;102258;-96
2022/08/24 10:10:03;;;;;;;;;9.00;8.33;;;;;25.10;58.06;98732.28;6175895;22;109117;-96
2022/08/24 10:13:08;;;;;;;;;8.00;7.00;;;;;25.10;58.05;98732.28;6174753;22;102545;-96
2022/08/24 10:15:56;;;;;;;;;9.33;8.00;;;;;25.10;57.96;98729.50;6087178;23;102786;-96
2022/08/24 10:18:42;;;;;;;;;10.67;9.00;;;;;25.10;58.03;98721.19;6058526;23;102657;-96
2022/08/24 10:21:12;;;;;;;;;8.00;6.67;;;;;25.10;57.92;98732.28;6104199;22;104445;-96
2022/08/24 10:23:54;;;;;;;;;10.00;8.00;;;;;25.10;57.97;98723.97;6173551;22;102450;-96
2022/08/24 10:26:30;;;;;;;;;10.33;8.00;;;;;25.14;57.85;98733.34;6172361;22;102551;-96
2022/08/24 10:29:10;;;;;;;;;6.00;6.00;;;;;25.12;57.94;98733.66;6148096;22;102699;-96
2022/08/24 10:31:37;;;;;;;;;8.00;8.00;;;;;25.15;57.80;98723.91;6148464;22;103291;-96
2022/08/24 10:34:24;;;;;;;;;6.33;6.33;;;;;25.15;57.93;98735.00;6149026;22;102372;-96
2022/08/24 10:37:01;;;;;;;;;7.67;6.67;;;;;25.12;57.98;98719.81;6153335;22;102271;-96
2022/08/24 10:40:36;;;;;;;;;5.00;5.00;;;;;25.15;57.93;98721.16;6170531;22;102524;-96
2022/08/24 10:46:33;;;;;;;;;7.00;7.00;;;;;25.15;57.88;98729.47;6147704;22;102132;-96
2022/08/24 10:49:09;;;;;;;;;7.00;7.00;;;;;25.16;57.91;98720.88;6147520;22;102117;-96
2022/08/24 10:52:16;;;;;;;;;5.00;5.00;;;;;25.18;57.98;98712.25;6153643;22;102683;-96
2022/08/24 10:54:46;;;;;;;;;7.33;6.33;;;;;25.17;57.94;98721.69;6151774;22;108829;-96
2022/08/24 10:57:15;;;;;;;;;7.67;7.00;;;;;25.17;57.93;98716.16;6146804;22;102353;-96
2022/08/24 11:00:13;;;;;;;;;5.67;5.00;;;;;25.16;57.94;98714.50;6172262;22;102227;-96
2022/08/24 11:02:49;;;;;;;;;8.00;7.00;;;;;25.20;57.80;98723.88;6167359;22;103142;-96
2022/08/24 11:05:28;;;;;;;;;6.33;6.00;;;;;25.19;57.87;98720.28;6148199;22;104022;-96
2022/08/24 11:07:58;;;;;;;;;6.00;6.00;;;;;25.19;57.72;98722.22;6171379;22;102471;-96
2022/08/24 11:10:31;;;;;;;;;8.00;6.33;;;;;25.19;57.96;98713.91;6149914;22;101977;-96
2022/08/24 11:13:24;;;;;;;;;7.67;6.67;;;;;25.22;57.83;98716.09;6151001;22;102134;-96
2022/08/24 11:15:56;;;;;;;;;6.00;6.00;;;;;25.18;57.63;98709.50;6152628;22;108581;-96
2022/08/24 11:18:25;;;;;;;;;7.00;7.00;;;;;25.19;57.73;98708.38;6173155;22;102407;-96
2022/08/24 11:20:53;;;;;;;;;8.00;7.33;;;;;25.18;57.64;98707.56;6152173;22;102643;-96
2022/08/24 11:23:22;;;;;;;;;8.33;7.00;;;;;25.23;57.84;98714.97;6149111;22;102240;-96
2022/08/24 11:26:17;;;;;;;;;9.67;8.00;;;;;25.19;57.74;98709.22;6151527;22;108693;-96
2022/08/24 11:28:52;;;;;;;;;7.67;7.00;;;;;25.22;57.89;98714.16;6149534;22;102522;-96
2022/08/24 11:31:30;;;;;;;;;7.00;7.00;;;;;25.26;57.70;98708.88;6126521;22;102543;-96
2022/08/24 11:34:07;;;;;;;;;4.33;4.00;;;;;25.27;57.69;98707.72;6149375;22;102502;-96
2022/08/24 11:36:35;;;;;;;;;5.00;5.00;;;;;25.23;57.71;98693.66;6143597;22;103957;-96
2022/08/24 11:39:19;;;;;;;;;10.00;7.00;;;;;25.28;57.67;98709.38;6151869;22;102543;-96
2022/08/24 11:41:58;;;;;;;;;6.33;5.67;;;;;25.28;57.77;98717.69;6149737;22;102408;-96
2022/08/24 11:44:52;;;;;;;;;8.00;6.33;;;;;25.26;57.67;98708.88;6147148;22;102213;-96
2022/08/24 11:47:38;;;;;;;;;6.33;6.00;;;;;25.29;57.72;98719.34;6171828;22;108662;-96
2022/08/24 11:50:17;;;;;;;;;6.00;6.00;;;;;25.28;57.96;98714.91;6168034;22;102298;-96
2022/08/24 11:52:59;;;;;;;;;6.00;5.33;;;;;25.28;57.78;98726.00;6172143;22;102467;-96